Time;durP1;ratioP1;P1;durP2;ratioP2;P2;SDS_P1;SDS_P2;PMS_P1;PMS_P2;Temp;Humidity;BMP_temperature;BMP_pressure;BME280_temperature;BME280_humidity;BME280_pressure;Samples;Min_cycle;Max_cycle;Signal;HPM_P1;HPM_P2
2023/06/14 00:01:14;;;;;;;;;18.67;15.00;;;;;23.18;38.58;100814.38;4940875;28;46301;-76
2023/06/14 00:03:39;;;;;;;;;17.67;15.67;;;;;23.14;38.68;100810.00;4940481;28;45708;-77
2023/06/14 00:06:04;;;;;;;;;15.00;12.00;;;;;22.90;39.11;100780.97;4940565;28;47175;-76
2023/06/14 00:08:30;;;;;;;;;15.67;14.33;;;;;22.85;39.42;100785.59;4940327;28;45492;-76
2023/06/14 00:10:55;;;;;;;;;21.33;15.00;;;;;22.84;39.84;100787.41;4935623;28;49889;-76
2023/06/14 00:13:21;;;;;;;;;15.00;14.00;;;;;22.82;39.71;100791.06;4939628;28;46958;-77
2023/06/14 00:15:47;;;;;;;;;15.33;15.33;;;;;22.85;39.45;100796.38;4934264;28;45633;-77
2023/06/14 00:18:13;;;;;;;;;17.67;15.67;;;;;22.85;39.88;100809.84;4943075;28;45267;-77
2023/06/14 00:20:39;;;;;;;;;15.33;14.67;;;;;22.76;40.15;100803.78;4950839;28;47281;-76
2023/06/14 00:23:04;;;;;;;;;19.00;17.67;;;;;22.77;40.27;100807.38;4940435;28;46479;-76
2023/06/14 00:25:30;;;;;;;;;18.00;17.00;;;;;22.62;40.06;100792.47;4940081;28;45374;-76
2023/06/14 00:27:56;;;;;;;;;15.67;15.00;;;;;22.70;40.56;100812.03;4940930;28;45331;-77
2023/06/14 00:30:22;;;;;;;;;16.33;14.00;;;;;22.65;40.36;100813.06;4954422;28;45696;-77
2023/06/14 00:32:47;;;;;;;;;16.67;16.67;;;;;22.46;41.12;100792.00;4940760;28;46142;-78
2023/06/14 00:35:13;;;;;;;;;15.33;15.33;;;;;22.20;41.11;100759.41;4939823;28;45337;-77
2023/06/14 00:37:39;;;;;;;;;13.00;13.00;;;;;22.36;40.88;100790.44;4940854;28;45499;-76
2023/06/14 00:40:05;;;;;;;;;18.67;17.33;;;;;22.46;41.40;100824.31;4939959;28;45361;-76
2023/06/14 00:42:31;;;;;;;;;16.67;14.00;;;;;22.32;41.41;100812.97;4940727;28;45442;-76
2023/06/14 00:44:57;;;;;;;;;21.00;18.33;;;;;22.03;41.53;100768.75;4954584;28;45519;-76
2023/06/14 00:47:22;;;;;;;;;13.00;11.67;;;;;22.25;41.95;100814.94;4940618;28;45345;-76
2023/06/14 00:49:50;;;;;;;;;20.67;18.33;;;;;22.22;41.89;100819.50;4941122;28;45295;-76
2023/06/14 00:52:16;;;;;;;;;21.33;19.00;;;;;21.93;42.32;100779.75;4958621;28;47401;-76
2023/06/14 00:54:42;;;;;;;;;18.00;18.00;;;;;22.15;42.49;100823.22;4943109;28;45378;-75
2023/06/14 00:57:08;;;;;;;;;19.67;17.00;;;;;22.14;42.75;100843.88;4943855;28;45528;-76
2023/06/14 00:59:41;;;;;;;;;21.00;18.67;;;;;21.56;42.54;100751.88;4943215;28;45345;-77
2023/06/14 01:02:07;;;;;;;;;21.67;20.00;;;;;21.84;42.27;100803.25;4941422;28;46423;-76
2023/06/14 01:04:32;;;;;;;;;22.67;18.00;;;;;21.66;42.38;100791.09;4937595;28;45371;-76
2023/06/14 01:07:17;;;;;;;;;16.00;13.67;;;;;21.92;42.92;100846.16;4942635;28;45370;-75
2023/06/14 01:10:10;;;;;;;;;17.67;16.00;;;;;21.52;42.37;100784.25;4937852;28;46057;-75
2023/06/14 01:12:52;;;;;;;;;20.67;16.00;;;;;20.30;42.62;100581.50;4943306;28;46535;-76
2023/06/14 01:15:20;;;;;;;;;16.67;16.67;;;;;21.47;42.91;100781.66;4937053;28;45970;-75
2023/06/14 01:17:51;;;;;;;;;17.33;14.00;;;;;21.61;43.17;100814.53;4947235;28;45268;-76
2023/06/14 01:20:19;;;;;;;;;19.33;18.33;;;;;21.60;43.69;100826.22;4942715;28;45315;-76
2023/06/14 01:22:52;;;;;;;;;18.00;18.00;;;;;21.33;42.88;100794.47;4943289;28;45474;-76
2023/06/14 01:25:20;;;;;;;;;20.00;16.67;;;;;21.57;44.58;100834.34;4942553;28;45425;-75
2023/06/14 01:27:48;;;;;;;;;17.00;17.00;;;;;21.24;44.44;100790.16;4943510;28;45465;-75
2023/06/14 01:30:14;;;;;;;;;21.33;19.67;;;;;21.46;44.75;100836.38;4942636;28;45362;-75
2023/06/14 01:32:40;;;;;;;;;17.67;16.33;;;;;21.38;44.59;100833.84;4941334;28;47154;-75
2023/06/14 01:35:06;;;;;;;;;18.67;17.33;;;;;21.24;45.16;100811.66;4942201;28;45535;-75
2023/06/14 01:37:32;;;;;;;;;15.67;15.67;;;;;21.21;44.53;100814.41;4943271;28;45569;-74
2023/06/14 01:39:58;;;;;;;;;20.67;18.33;;;;;21.27;44.96;100830.44;4942253;28;45365;-74
2023/06/14 01:42:24;;;;;;;;;20.00;18.67;;;;;21.14;45.53;100804.69;4943146;28;46532;-74
2023/06/14 01:44:53;;;;;;;;;17.00;17.00;;;;;20.97;45.81;100788.88;4942408;28;45441;-74
2023/06/14 01:47:19;;;;;;;;;17.67;17.67;;;;;21.11;46.51;100824.44;4943167;28;45357;-74
2023/06/14 01:49:46;;;;;;;;;19.67;18.33;;;;;20.92;46.50;100807.81;4942234;28;45318;-75
2023/06/14 01:52:12;;;;;;;;;19.00;19.00;;;;;20.75;47.75;100789.28;4941633;28;46379;-74
2023/06/14 01:54:41;;;;;;;;;22.33;20.67;;;;;20.91;47.35;100816.75;4942217;28;45358;-74
2023/06/14 01:57:07;;;;;;;;;21.67;20.00;;;;;20.75;47.50;100796.44;4942674;28;45267;-74
2023/06/14 01:59:34;;;;;;;;;21.00;19.00;;;;;20.90;47.97;100828.44;4942274;28;45404;-75
2023/06/14 02:02:00;;;;;;;;;22.33;21.33;;;;;20.74;49.18;100802.75;4936524;28;46384;-75
2023/06/14 02:04:25;;;;;;;;;17.67;15.67;;;;;20.76;48.66;100820.59;4942351;28;46528;-75
2023/06/14 02:06:50;;;;;;;;;24.67;22.00;;;;;20.80;49.05;100840.25;4941484;28;45465;-74
2023/06/14 02:09:16;;;;;;;;;24.00;19.67;;;;;20.55;49.25;100807.53;4941828;28;45369;-74
2023/06/14 02:11:41;;;;;;;;;24.33;21.33;;;;;20.76;50.10;100850.16;4942568;28;46452;-74
2023/06/14 02:14:07;;;;;;;;;27.67;23.67;;;;;20.63;50.05;100827.09;4941729;28;53883;-75
2023/06/14 02:16:32;;;;;;;;;25.67;23.33;;;;;20.47;49.23;100804.97;4944721;28;45367;-74
2023/06/14 02:18:58;;;;;;;;;23.00;23.00;;;;;20.64;50.42;100838.72;4943107;28;45463;-75
2023/06/14 02:21:23;;;;;;;;;21.67;20.33;;;;;20.52;50.54;100827.22;4942189;28;46293;-74
2023/06/14 02:23:48;;;;;;;;;24.33;23.00;;;;;20.61;50.38;100846.84;4941813;28;45678;-74
2023/06/14 02:26:14;;;;;;;;;23.33;22.33;;;;;20.50;50.98;100833.53;4942433;28;45235;-74
2023/06/14 02:28:39;;;;;;;;;26.00;25.33;;;;;20.37;51.48;100808.69;4942060;28;45382;-75
2023/06/14 02:31:04;;;;;;;;;24.33;20.33;;;;;20.50;51.28;100842.50;4942196;28;45603;-74
2023/06/14 02:33:30;;;;;;;;;24.67;23.67;;;;;20.32;52.29;100819.50;4942341;28;45413;-75
2023/06/14 02:35:56;;;;;;;;;29.00;24.00;;;;;20.39;51.79;100839.09;4940206;28;45273;-75
2023/06/14 02:38:21;;;;;;;;;26.33;23.67;;;;;20.39;52.49;100851.63;4940762;28;46350;-74
2023/06/14 02:40:46;;;;;;;;;25.33;24.00;;;;;20.26;52.50;100838.38;4941117;28;53484;-74
2023/06/14 02:43:12;;;;;;;;;29.33;25.00;;;;;20.17;52.42;100834.97;4941846;28;45295;-75
2023/06/14 02:45:37;;;;;;;;;26.00;25.33;;;;;20.01;53.41;100808.34;4955034;28;45176;-75
2023/06/14 02:48:03;;;;;;;;;27.00;24.67;;;;;20.10;53.06;100829.66;4942375;28;46614;-75
2023/06/14 02:50:30;;;;;;;;;24.67;23.67;;;;;19.93;53.65;100812.91;4941387;28;46504;-75
2023/06/14 02:52:56;;;;;;;;;27.67;26.33;;;;;20.15;53.87;100858.25;4937287;28;45379;-74
2023/06/14 02:55:22;;;;;;;;;26.33;24.67;;;;;20.10;53.74;100855.63;4936275;28;45310;-74
2023/06/14 02:57:48;;;;;;;;;26.67;25.00;;;;;19.98;54.29;100832.53;4942215;28;47504;-74
2023/06/14 03:00:13;;;;;;;;;27.33;24.33;;;;;19.99;54.17;100846.84;4952995;28;48010;-74
2023/06/14 03:02:39;;;;;;;;;23.67;22.33;;;;;19.89;54.20;100836.22;4939467;28;45318;-74
2023/06/14 03:05:06;;;;;;;;;23.67;22.67;;;;;19.78;54.15;100826.56;4941538;28;45563;-74
2023/06/14 03:07:32;;;;;;;;;25.00;23.33;;;;;19.74;53.97;100827.50;4941663;28;45374;-74
2023/06/14 03:09:57;;;;;;;;;28.33;27.00;;;;;19.78;54.26;100834.59;4939516;28;45597;-75
2023/06/14 03:12:23;;;;;;;;;28.67;28.00;;;;;19.82;54.84;100861.34;4940414;28;45511;-74
2023/06/14 03:14:50;;;;;;;;;27.67;26.33;;;;;19.82;54.55;100855.09;4941509;28;45338;-75
2023/06/14 03:17:17;;;;;;;;;24.33;22.00;;;;;19.68;55.19;100848.09;4942689;28;45346;-76
2023/06/14 03:19:43;;;;;;;;;24.67;23.00;;;;;19.69;55.21;100854.38;4941077;28;45316;-75
2023/06/14 03:22:08;;;;;;;;;27.00;25.67;;;;;19.72;55.84;100875.81;4941666;28;45386;-75
2023/06/14 03:24:36;;;;;;;;;27.67;26.33;;;;;19.64;55.54;100862.44;4941670;28;45231;-75
2023/06/14 03:27:02;;;;;;;;;22.00;22.00;;;;;19.63;55.94;100875.84;4940492;28;46152;-75
2023/06/14 03:29:27;;;;;;;;;28.33;27.00;;;;;19.42;55.67;100847.50;4940679;28;45321;-75
2023/06/14 03:31:58;;;;;;;;;28.33;27.00;;;;;19.59;55.37;100880.38;4941551;28;45206;-74
2023/06/14 03:34:23;;;;;;;;;28.00;24.33;;;;;19.45;56.01;100868.94;4954491;28;45307;-75
2023/06/14 03:36:49;;;;;;;;;25.67;25.67;;;;;19.35;56.52;100861.88;4941168;28;45287;-75
2023/06/14 03:39:14;;;;;;;;;23.67;22.67;;;;;19.47;55.98;100890.38;4940684;28;45239;-74
2023/06/14 03:41:40;;;;;;;;;26.67;24.33;;;;;19.33;56.72;100872.63;4940087;28;45312;-74
2023/06/14 03:44:05;;;;;;;;;29.00;26.33;;;;;19.32;56.43;100884.25;4955059;28;46597;-74
2023/06/14 03:46:31;;;;;;;;;28.00;25.00;;;;;19.22;56.79;100861.13;4941104;28;45580;-74
2023/06/14 03:48:57;;;;;;;;;28.67;28.00;;;;;19.32;56.66;100888.72;4940676;28;45334;-75
2023/06/14 03:51:22;;;;;;;;;25.67;22.67;;;;;19.13;57.10;100858.53;4939933;28;45326;-74
2023/06/14 03:53:47;;;;;;;;;32.67;28.67;;;;;19.19;57.48;100883.50;4940791;28;45561;-74
2023/06/14 03:56:13;;;;;;;;;28.67;27.33;;;;;19.16;57.88;100894.25;4939932;28;47118;-75
2023/06/14 03:58:38;;;;;;;;;26.33;25.33;;;;;19.13;58.12;100894.28;4939878;28;46366;-75
2023/06/14 04:01:04;;;;;;;;;30.00;27.00;;;;;18.89;57.50;100848.94;4940898;28;45378;-75
2023/06/14 04:03:29;;;;;;;;;28.00;26.33;;;;;19.17;57.47;100911.19;4941133;28;45281;-75
2023/06/14 04:05:56;;;;;;;;;25.67;24.33;;;;;19.03;58.09;100897.94;4940274;28;45376;-75
2023/06/14 04:08:22;;;;;;;;;28.33;27.67;;;;;19.04;57.59;100901.50;4940996;28;46378;-74
2023/06/14 04:10:47;;;;;;;;;26.00;25.00;;;;;19.10;57.65;100899.66;4940106;28;45270;-75
2023/06/14 04:13:13;;;;;;;;;33.00;28.67;;;;;19.03;57.10;100891.69;4941263;28;45315;-75
2023/06/14 04:15:41;;;;;;;;;28.33;26.00;;;;;19.07;58.26;100904.13;4955195;28;46423;-75
2023/06/14 04:18:07;;;;;;;;;29.67;25.33;;;;;18.71;56.93;100848.19;4957708;28;47036;-75
2023/06/14 04:20:33;;;;;;;;;28.33;27.00;;;;;18.98;57.84;100897.97;4940171;28;45463;-74
2023/06/14 04:23:14;;;;;;;;;31.33;27.33;;;;;18.92;56.23;100894.47;4940861;28;45345;-75
2023/06/14 04:25:40;;;;;;;;;30.67;27.00;;;;;19.02;57.79;100917.59;4939611;28;45317;-75
2023/06/14 04:28:05;;;;;;;;;28.33;28.33;;;;;19.04;57.55;100926.50;4940406;28;45433;-75
2023/06/14 04:30:31;;;;;;;;;32.33;30.00;;;;;18.84;57.16;100891.84;4940358;28;45656;-75
2023/06/14 04:32:57;;;;;;;;;31.00;29.67;;;;;19.08;57.72;100930.94;4939544;28;45228;-75
2023/06/14 04:35:23;;;;;;;;;32.67;28.67;;;;;18.97;57.89;100914.94;4940085;28;45492;-75
2023/06/14 04:37:49;;;;;;;;;28.33;26.33;;;;;18.93;57.10;100917.66;4940647;28;45479;-75
2023/06/14 04:40:15;;;;;;;;;31.00;27.67;;;;;18.99;57.25;100931.91;4951916;28;45457;-75
2023/06/14 04:42:44;;;;;;;;;30.67;28.33;;;;;18.85;57.31;100909.69;4940949;28;45464;-75
2023/06/14 04:45:10;;;;;;;;;29.67;27.67;;;;;18.69;57.33;100876.75;4939981;28;45672;-74
2023/06/14 04:47:37;;;;;;;;;27.67;26.67;;;;;19.02;58.00;100931.00;4940662;28;45643;-75
2023/06/14 04:50:03;;;;;;;;;27.33;27.33;;;;;18.92;57.17;100922.13;4940316;28;45241;-74
2023/06/14 04:52:30;;;;;;;;;27.00;24.33;;;;;19.05;56.68;100939.00;4940241;28;45445;-72
2023/06/14 04:54:55;;;;;;;;;31.33;26.00;;;;;19.01;58.25;100937.22;4939716;28;45424;-72
2023/06/14 04:57:21;;;;;;;;;28.00;25.00;;;;;18.94;56.98;100932.84;4954641;28;46674;-72
2023/06/14 04:59:47;;;;;;;;;31.33;27.67;;;;;18.93;56.97;100928.38;4939847;28;45314;-73
2023/06/14 05:02:13;;;;;;;;;29.67;27.67;;;;;19.04;57.14;100931.84;4938370;28;45371;-73
2023/06/14 05:04:39;;;;;;;;;27.67;25.67;;;;;19.07;57.28;100936.28;4939938;28;45231;-73
2023/06/14 05:07:09;;;;;;;;;31.67;29.67;;;;;19.07;56.92;100934.50;4939613;28;45450;-72
2023/06/14 05:09:34;;;;;;;;;28.67;24.67;;;;;19.04;58.11;100929.16;4939472;28;45463;-73
2023/06/14 05:12:00;;;;;;;;;28.67;28.67;;;;;19.05;58.10;100933.66;4939824;28;45416;-72
2023/06/14 05:14:26;;;;;;;;;30.67;26.33;;;;;19.09;58.20;100930.03;4939643;28;45367;-73
2023/06/14 05:16:51;;;;;;;;;31.33;29.67;;;;;19.20;58.14;100954.94;4943430;28;45624;-75
2023/06/14 05:19:18;;;;;;;;;27.00;24.00;;;;;19.18;58.10;100940.66;4937415;28;45481;-73
2023/06/14 05:21:43;;;;;;;;;30.33;27.00;;;;;19.21;57.96;100942.41;4940099;28;45376;-74
2023/06/14 05:24:09;;;;;;;;;33.67;31.00;;;;;19.17;58.46;100946.03;4939580;28;45211;-74
2023/06/14 05:26:35;;;;;;;;;29.67;29.33;;;;;19.11;58.16;100935.38;4939990;28;45425;-74
2023/06/14 05:29:01;;;;;;;;;32.00;29.00;;;;;19.25;58.66;100954.03;4939569;28;45252;-74
2023/06/14 05:31:27;;;;;;;;;33.00;30.33;;;;;19.26;58.34;100947.75;4940129;28;45496;-73
2023/06/14 05:33:53;;;;;;;;;31.33;28.00;;;;;19.25;58.50;100945.97;4939440;28;45249;-74
2023/06/14 05:36:21;;;;;;;;;31.33;29.00;;;;;19.29;58.44;100948.59;4941640;28;45492;-75
2023/06/14 05:38:46;;;;;;;;;31.00;29.00;;;;;19.30;58.49;100949.50;4941873;28;45330;-74
2023/06/14 05:41:12;;;;;;;;;33.33;29.67;;;;;19.23;58.35;100938.81;4943169;28;45378;-74
2023/06/14 05:43:37;;;;;;;;;28.67;26.67;;;;;19.29;58.39;100937.00;4941942;28;45305;-74
2023/06/14 05:46:03;;;;;;;;;34.00;28.00;;;;;19.42;58.07;100969.03;4956750;28;50200;-74
2023/06/14 05:48:30;;;;;;;;;30.67;28.00;;;;;19.44;58.24;100964.56;4943390;28;45306;-74
2023/06/14 05:50:55;;;;;;;;;33.33;31.00;;;;;19.34;58.14;100941.41;4942175;28;45710;-73
2023/06/14 05:53:20;;;;;;;;;29.33;28.33;;;;;19.47;57.76;100957.41;4942940;28;45485;-74
2023/06/14 05:55:46;;;;;;;;;38.00;32.33;;;;;19.33;57.19;100922.69;4942252;28;50957;-76
2023/06/14 05:58:13;;;;;;;;;31.33;29.00;;;;;19.42;57.28;100933.31;4942970;28;47865;-77
2023/06/14 06:00:39;;;;;;;;;31.00;30.00;;;;;19.61;57.25;100968.88;4942493;28;45453;-77
2023/06/14 06:03:04;;;;;;;;;35.00;33.00;;;;;19.53;57.48;100955.53;4942638;28;45278;-74
2023/06/14 06:05:30;;;;;;;;;37.33;31.33;;;;;19.49;56.77;100943.03;4941943;28;45653;-74
2023/06/14 06:07:55;;;;;;;;;32.00;30.33;;;;;19.63;57.02;100959.91;4942878;28;45360;-76
2023/06/14 06:10:21;;;;;;;;;33.00;31.33;;;;;19.81;57.32;100969.56;4942070;28;46410;-78
2023/06/14 06:12:48;;;;;;;;;38.00;32.67;;;;;19.76;56.94;100951.75;4943220;28;45488;-76
2023/06/14 06:15:14;;;;;;;;;34.00;30.33;;;;;19.60;57.19;100919.69;4938313;28;46810;-76
2023/06/14 06:17:40;;;;;;;;;37.33;30.67;;;;;19.88;56.50;100962.34;4946012;28;45436;-77
2023/06/14 06:20:08;;;;;;;;;29.00;28.00;;;;;20.01;55.01;100976.50;4942109;28;45397;-77
2023/06/14 06:22:36;;;;;;;;;24.33;23.00;;;;;19.89;53.16;100931.94;4942810;28;45600;-76
2023/06/14 06:25:02;;;;;;;;;32.00;29.00;;;;;19.96;52.37;100922.88;4942887;28;45413;-76
2023/06/14 06:27:27;;;;;;;;;29.67;28.33;;;;;20.13;52.80;100925.34;4942441;28;45332;-76
2023/06/14 06:29:52;;;;;;;;;28.67;27.00;;;;;20.53;51.69;100959.78;4935043;28;45410;-78
2023/06/14 06:32:18;;;;;;;;;28.33;25.67;;;;;20.72;51.26;100946.94;4942587;28;45310;-77
2023/06/14 06:34:43;;;;;;;;;24.67;23.67;;;;;21.23;49.37;100976.59;4937959;28;46725;-77
2023/06/14 06:37:09;;;;;;;;;19.00;17.00;;;;;21.38;49.69;100946.78;4942231;28;45329;-76
2023/06/14 06:39:34;;;;;;;;;31.00;24.33;;;;;21.81;47.83;100970.19;4941803;28;45403;-76
2023/06/14 06:42:00;;;;;;;;;24.67;23.67;;;;;22.24;47.29;100987.34;4942029;28;45596;-75
2023/06/14 06:44:25;;;;;;;;;23.00;18.67;;;;;22.37;44.05;100956.50;4941627;28;46412;-76
2023/06/14 06:46:50;;;;;;;;;20.33;18.33;;;;;22.78;43.48;100973.53;4940698;28;45242;-76
2023/06/14 06:49:16;;;;;;;;;19.67;19.33;;;;;23.09;41.64;100962.94;4936582;28;45511;-75
2023/06/14 06:51:43;;;;;;;;;15.67;15.33;;;;;23.38;41.75;100956.78;4952317;28;45480;-74
2023/06/14 06:54:08;;;;;;;;;17.00;17.00;;;;;23.83;41.20;100966.41;4955079;28;47897;-75
2023/06/14 06:56:34;;;;;;;;;17.33;16.00;;;;;24.05;39.84;100954.06;4941944;28;45406;-75
2023/06/14 06:59:00;;;;;;;;;16.67;16.00;;;;;24.51;39.18;100973.50;4941038;28;45382;-76
2023/06/14 07:01:26;;;;;;;;;20.00;17.33;;;;;24.74;40.76;100962.84;4939281;28;45493;-76
2023/06/14 07:03:51;;;;;;;;;22.00;18.00;;;;;24.96;39.02;100945.91;4941649;28;46464;-75
2023/06/14 07:06:18;;;;;;;;;19.00;17.33;;;;;25.32;37.78;100967.28;4942916;28;45520;-76
2023/06/14 07:08:44;;;;;;;;;19.00;15.33;;;;;25.43;37.28;100921.78;4940916;28;45383;-76
2023/06/14 07:11:10;;;;;;;;;15.33;14.67;;;;;26.16;36.78;101001.31;4941288;28;45145;-77
2023/06/14 07:13:35;;;;;;;;;15.67;15.00;;;;;25.80;39.09;100902.41;4954688;28;46512;-76
2023/06/14 07:16:01;;;;;;;;;18.67;16.33;;;;;26.71;34.39;101005.56;4940643;28;45337;-75
2023/06/14 07:18:27;;;;;;;;;17.00;14.67;;;;;26.96;38.27;101016.31;4943297;28;45287;-76
2023/06/14 07:20:53;;;;;;;;;19.25;15.75;;;;;26.94;33.75;100965.75;4941108;28;45462;-74
2023/06/14 07:23:19;;;;;;;;;17.50;15.50;;;;;27.43;37.24;100996.31;4943174;28;45512;-74
2023/06/14 07:25:45;;;;;;;;;22.50;17.00;;;;;27.46;36.44;100952.75;4937539;28;45737;-74
2023/06/14 07:28:10;;;;;;;;;16.00;16.00;;;;;28.00;32.00;101004.72;4940953;28;45365;-75
2023/06/14 07:30:36;;;;;;;;;15.25;15.25;;;;;28.05;32.32;100970.06;4940461;28;45599;-73
2023/06/14 07:33:01;;;;;;;;;18.00;15.00;;;;;28.54;33.03;101023.09;4940313;28;46295;-73
2023/06/14 07:35:26;;;;;;;;;13.25;13.25;;;;;28.47;35.90;100969.06;4936425;28;46349;-74
2023/06/14 07:37:52;;;;;;;;;23.00;18.50;;;;;28.79;34.54;100997.41;4938989;28;45421;-74
2023/06/14 07:40:17;;;;;;;;;15.50;15.50;;;;;28.77;32.16;100967.59;4938304;28;45691;-74
2023/06/14 07:42:43;;;;;;;;;15.75;13.25;;;;;29.34;33.75;101032.84;4955420;28;46719;-77
2023/06/14 07:45:09;;;;;;;;;16.75;15.50;;;;;29.39;33.96;101009.00;4939066;28;45324;-78
2023/06/14 07:47:34;;;;;;;;;16.25;15.25;;;;;29.66;29.73;101035.78;4940932;28;45291;-78
2023/06/14 07:49:59;;;;;;;;;16.00;14.25;;;;;29.83;30.89;101038.53;4938359;28;46263;-73
2023/06/14 07:52:25;;;;;;;;;15.75;15.00;;;;;29.60;29.74;100976.16;4955296;28;47435;-76
2023/06/14 07:54:50;;;;;;;;;19.00;16.25;;;;;30.11;31.03;101034.38;4940227;28;45290;-73
2023/06/14 07:57:16;;;;;;;;;14.50;13.50;;;;;30.17;29.29;101008.59;4939409;28;45281;-73
2023/06/14 07:59:41;;;;;;;;;19.00;18.00;;;;;30.56;32.00;101043.75;4939793;28;45303;-72
2023/06/14 08:02:06;;;;;;;;;17.25;17.25;;;;;30.73;30.55;101030.06;4940283;28;46436;-72
2023/06/14 08:04:32;;;;;;;;;16.50;16.25;;;;;30.95;27.72;101037.06;4937650;28;45572;-73
2023/06/14 08:06:59;;;;;;;;;16.00;14.00;;;;;31.20;30.57;101037.41;4938420;28;45482;-74
2023/06/14 08:09:25;;;;;;;;;18.25;14.50;;;;;31.42;30.70;101036.16;4938375;28;46144;-73
2023/06/14 08:11:50;;;;;;;;;14.75;13.75;;;;;31.56;27.72;101019.81;4940094;28;45598;-74
2023/06/14 08:14:16;;;;;;;;;14.00;13.50;;;;;31.51;25.66;100977.34;4939855;28;45449;-73
2023/06/14 08:16:41;;;;;;;;;14.75;13.25;;;;;31.98;25.12;101034.59;4943677;28;45364;-74
2023/06/14 08:19:07;;;;;;;;;16.00;15.75;;;;;31.99;24.91;100987.16;4940722;28;45536;-74
2023/06/14 08:21:33;;;;;;;;;15.00;14.25;;;;;32.42;25.42;101021.88;4954930;28;47236;-75
2023/06/14 08:23:59;;;;;;;;;14.40;14.40;;;;;32.59;27.47;101023.56;4936610;28;45275;-74
2023/06/14 08:26:28;;;;;;;;;18.00;18.00;;;;;32.86;24.02;101038.19;4938605;28;45392;-74
2023/06/14 08:28:54;;;;;;;;;15.00;13.25;;;;;32.68;25.43;100970.94;4938343;28;46142;-74
2023/06/14 08:31:20;;;;;;;;;16.50;14.75;;;;;33.31;24.89;101036.16;4938686;28;47159;-75
2023/06/14 08:33:45;;;;;;;;;13.00;13.00;;;;;33.35;25.03;101021.25;4938203;28;45323;-74
2023/06/14 08:36:11;;;;;;;;;16.75;15.25;;;;;33.55;23.01;101021.78;4939888;28;45432;-74
2023/06/14 08:38:37;;;;;;;;;14.20;13.20;;;;;33.68;26.18;101027.31;4939238;28;45362;-74
2023/06/14 08:41:05;;;;;;;;;17.25;16.00;;;;;33.92;23.46;101032.94;4935762;28;46078;-73
2023/06/14 08:43:31;;;;;;;;;13.80;12.80;;;;;33.95;22.75;101003.44;4938544;28;45753;-74
2023/06/14 08:46:02;;;;;;;;;19.00;15.00;;;;;34.35;23.50;101044.53;4950328;28;45233;-74
2023/06/14 08:48:28;;;;;;;;;15.80;14.00;;;;;34.29;23.37;101015.66;4939916;28;45479;-74
2023/06/14 08:51:01;;;;;;;;;17.00;15.00;;;;;34.56;24.61;101030.25;4951162;28;46908;-73
2023/06/14 08:53:36;;;;;;;;;15.20;15.20;;;;;34.59;23.89;101033.69;4938246;28;45434;-74
2023/06/14 08:56:04;;;;;;;;;14.40;12.20;;;;;34.69;23.95;101026.50;4934255;28;45692;-75
2023/06/14 08:58:31;;;;;;;;;15.40;13.00;;;;;34.91;22.83;101042.28;4939716;28;45361;-75
2023/06/14 09:00:57;;;;;;;;;18.40;16.40;;;;;34.97;21.48;101027.22;4916591;28;47237;-74
2023/06/14 09:03:29;;;;;;;;;17.20;16.00;;;;;35.26;23.31;101048.91;4940142;28;45306;-74
2023/06/14 09:05:58;;;;;;;;;16.20;15.00;;;;;35.38;21.22;101026.00;4933733;28;45429;-75
2023/06/14 09:08:25;;;;;;;;;13.60;12.80;;;;;35.49;22.26;101008.66;4938291;28;45783;-74
2023/06/14 09:10:51;;;;;;;;;15.60;15.00;;;;;35.77;20.40;101040.44;4948261;28;46727;-75
2023/06/14 09:13:20;;;;;;;;;12.25;12.25;;;;;35.61;19.46;101022.38;4966790;28;45604;-75
2023/06/14 09:15:45;;;;;;;;;15.60;12.80;;;;;35.89;19.21;101039.47;4953873;28;45341;-72
2023/06/14 09:18:11;;;;;;;;;14.50;12.25;;;;;35.85;20.02;100992.06;4958443;28;46854;-74
2023/06/14 09:20:37;;;;;;;;;15.75;13.00;;;;;36.21;22.98;101033.31;4937465;28;46459;-75
2023/06/14 09:23:04;;;;;;;;;17.75;15.75;;;;;36.30;22.23;101041.72;4942235;28;45622;-74
2023/06/14 09:25:29;;;;;;;;;13.40;13.40;;;;;36.59;20.29;101051.41;4952821;28;45470;-74
2023/06/14 09:27:55;;;;;;;;;14.75;14.00;;;;;36.51;18.67;101008.81;4956531;28;45401;-76
2023/06/14 09:30:21;;;;;;;;;14.25;13.50;;;;;36.47;18.07;101048.63;4936782;28;46844;-76
2023/06/14 09:32:46;;;;;;;;;14.50;13.50;;;;;36.39;18.81;101034.59;4940898;28;45739;-73
2023/06/14 09:35:12;;;;;;;;;14.00;14.00;;;;;36.47;17.83;101048.63;4938859;28;45309;-77
2023/06/14 09:37:38;;;;;;;;;11.00;11.00;;;;;36.53;18.47;101055.53;4940776;28;45952;-76
2023/06/14 09:40:04;;;;;;;;;13.00;12.40;;;;;36.59;18.15;101046.78;4954035;28;48129;-74
2023/06/14 09:42:30;;;;;;;;;10.60;10.60;;;;;36.81;20.60;101059.66;4942671;28;45230;-75
2023/06/14 09:44:56;;;;;;;;;13.00;12.20;;;;;36.78;18.75;101026.88;4939339;28;45394;-75
2023/06/14 09:47:23;;;;;;;;;12.60;11.40;;;;;37.04;18.76;101032.13;4936806;28;45492;-76
2023/06/14 09:49:50;;;;;;;;;13.20;13.00;;;;;37.17;16.88;101052.13;4951388;28;47901;-75
2023/06/14 09:52:19;;;;;;;;;12.00;10.60;;;;;37.33;15.24;101046.19;4942364;28;45382;-75
2023/06/14 09:54:47;;;;;;;;;7.40;7.40;;;;;37.41;16.06;101061.06;4939634;28;45492;-75
2023/06/14 09:57:23;;;;;;;;;12.40;12.40;;;;;37.60;17.33;101054.91;4940659;28;45378;-75
2023/06/14 09:59:53;;;;;;;;;12.00;11.00;;;;;37.88;18.71;101049.75;4936083;28;45658;-76
2023/06/14 10:02:25;;;;;;;;;11.80;11.80;;;;;38.03;17.78;101066.88;4942017;28;45390;-74
2023/06/14 10:04:57;;;;;;;;;10.60;10.40;;;;;37.97;15.99;101053.63;4935395;28;45604;-74
2023/06/14 10:07:25;;;;;;;;;14.20;11.20;;;;;37.86;17.48;101051.75;4942118;28;45400;-76
2023/06/14 10:09:53;;;;;;;;;12.80;12.80;;;;;37.72;16.25;101028.13;4937029;28;47999;-71
2023/06/14 10:12:22;;;;;;;;;13.80;12.40;;;;;38.03;17.99;101053.94;4951141;28;45349;-75
2023/06/14 10:14:55;;;;;;;;;9.60;9.40;;;;;37.88;17.11;101046.13;4950962;28;45334;-75
2023/06/14 10:17:27;;;;;;;;;14.80;11.40;;;;;37.90;15.79;101057.91;4942286;28;45394;-74
2023/06/14 10:20:23;;;;;;;;;9.60;9.00;;;;;38.10;17.46;101057.06;4950552;28;48184;-73
2023/06/14 10:22:58;;;;;;;;;12.00;11.20;;;;;38.11;16.58;101046.91;4934985;28;45238;-74
2023/06/14 10:25:30;;;;;;;;;12.40;11.40;;;;;37.85;17.46;101038.97;4937476;28;45481;-74
2023/06/14 10:28:16;;;;;;;;;10.20;10.20;;;;;37.89;17.44;101051.50;4942480;28;45470;-74
2023/06/14 10:31:04;;;;;;;;;12.00;10.60;;;;;37.85;16.21;101036.22;4949496;28;47646;-74
2023/06/14 10:33:30;;;;;;;;;12.60;12.20;;;;;37.94;17.25;101040.06;4938481;28;45519;-75
2023/06/14 10:36:27;;;;;;;;;13.25;13.25;;;;;38.14;16.66;101061.28;4948544;28;45449;-75
2023/06/14 10:39:08;;;;;;;;;12.20;11.00;;;;;38.25;16.31;101052.06;4940255;28;45636;-75
2023/06/14 10:41:38;;;;;;;;;14.40;14.40;;;;;38.17;16.85;101035.28;4952718;28;48475;-74
2023/06/14 10:44:12;;;;;;;;;14.40;12.00;;;;;38.25;16.62;101052.94;4953218;28;45556;-75
2023/06/14 10:46:39;;;;;;;;;13.80;12.60;;;;;38.27;16.89;101042.63;4933028;28;45394;-74
2023/06/14 10:49:06;;;;;;;;;16.20;16.20;;;;;38.33;16.08;101032.06;4943923;28;45472;-73
2023/06/14 10:51:46;;;;;;;;;12.80;12.60;;;;;38.48;15.38;101048.19;4934441;28;45364;-73
2023/06/14 10:54:13;;;;;;;;;12.80;12.20;;;;;38.72;14.70;101044.19;4937193;28;45438;-75
2023/06/14 10:56:49;;;;;;;;;14.80;14.60;;;;;38.79;16.83;101036.19;4936457;28;45732;-73
2023/06/14 10:59:17;;;;;;;;;11.80;11.60;;;;;38.96;15.02;101030.03;4938719;28;45450;-75
2023/06/14 11:02:27;;;;;;;;;13.20;12.40;;;;;39.24;16.92;101042.19;4951021;28;48306;-75
2023/06/14 11:04:53;;;;;;;;;13.00;13.00;;;;;39.32;15.99;101044.25;4925043;28;45414;-76
2023/06/14 11:07:55;;;;;;;;;11.00;10.50;;;;;39.28;15.93;101046.41;4952613;28;45322;-74
2023/06/14 11:10:36;;;;;;;;;10.20;10.20;;;;;39.41;16.28;101048.03;4950205;28;46061;-73